Time;durP1;ratioP1;P1;durP2;ratioP2;P2;SDS_P1;SDS_P2;PMS_P1;PMS_P2;Temp;Humidity;BMP_temperature;BMP_pressure;BME280_temperature;BME280_humidity;BME280_pressure;Samples;Min_cycle;Max_cycle;Signal;HPM_P1;HPM_P2
2022/06/03 00:00:50;;;;;;;6.20;5.60;;;18.70;99.90;;;;;;6326929;28;20732;-62
2022/06/03 00:04:08;;;;;;;6.83;6.20;;;18.60;99.90;;;;;;6326790;28;20245;-62
2022/06/03 00:07:28;;;;;;;5.80;5.40;;;18.60;99.90;;;;;;6326391;28;20227;-62
2022/06/03 00:10:56;;;;;;;6.20;5.70;;;18.60;99.90;;;;;;6326658;28;20449;-62
2022/06/03 00:14:31;;;;;;;5.97;5.47;;;18.70;99.90;;;;;;6325970;28;20226;-62
2022/06/03 00:18:00;;;;;;;5.10;4.63;;;18.70;99.90;;;;;;6326544;28;20464;-62
2022/06/03 00:21:07;;;;;;;5.27;4.87;;;18.60;99.90;;;;;;6319802;28;20240;-62
2022/06/03 00:24:25;;;;;;;6.43;5.23;;;18.50;99.90;;;;;;6325997;28;20696;-62
2022/06/03 00:27:56;;;;;;;5.40;5.00;;;18.50;99.90;;;;;;6326142;28;20227;-62
2022/06/03 00:31:13;;;;;;;5.67;5.17;;;18.60;99.90;;;;;;6310005;28;20473;-62
2022/06/03 00:34:39;;;;;;;5.67;5.17;;;18.60;99.90;;;;;;6325503;28;20472;-62
2022/06/03 00:37:49;;;;;;;5.50;5.10;;;18.50;99.90;;;;;;6326109;28;20218;-62
2022/06/03 00:41:11;;;;;;;4.97;4.60;;;18.50;99.90;;;;;;6325874;28;20236;-62
2022/06/03 00:44:35;;;;;;;5.30;4.90;;;18.40;99.90;;;;;;6325932;28;20226;-62
2022/06/03 00:48:00;;;;;;;5.10;4.70;;;18.40;99.90;;;;;;6325742;28;20481;-62
2022/06/03 00:51:29;;;;;;;5.27;4.77;;;18.40;99.90;;;;;;6324683;28;20227;-62
2022/06/03 00:54:48;;;;;;;5.27;4.70;;;18.40;99.90;;;;;;6325036;28;20483;-63
2022/06/03 00:58:31;;;;;;;5.77;5.30;;;18.40;99.90;;;;;;6301168;28;20232;-62
2022/06/03 01:01:45;;;;;;;5.73;5.23;;;18.40;99.90;;;;;;6300478;28;20234;-63
2022/06/03 01:05:08;;;;;;;5.40;5.00;;;18.50;99.90;;;;;;6325506;28;20256;-63
2022/06/03 01:08:15;;;;;;;5.87;5.20;;;18.50;99.90;;;;;;6316223;28;20663;-63
2022/06/03 01:11:31;;;;;;;5.53;5.10;;;18.50;99.90;;;;;;6315614;28;20307;-62
2022/06/03 01:14:50;;;;;;;5.13;4.73;;;18.50;99.90;;;;;;6319427;28;20274;-63
2022/06/03 01:18:07;;;;;;;6.00;5.50;;;18.50;99.90;;;;;;6322931;28;20242;-63
2022/06/03 01:21:23;;;;;;;5.87;5.27;;;18.50;99.90;;;;;;6315654;28;20668;-65
2022/06/03 01:24:57;;;;;;;6.30;5.70;;;18.50;99.90;;;;;;6321856;28;20245;-63
2022/06/03 01:28:37;;;;;;;6.60;5.60;;;18.50;99.90;;;;;;6317730;28;20531;-63
2022/06/03 01:32:23;;;;;;;5.77;5.27;;;18.40;99.90;;;;;;6323552;28;21081;-63
2022/06/03 01:35:54;;;;;;;5.77;5.27;;;18.40;99.90;;;;;;6322249;28;20244;-63
2022/06/03 01:39:28;;;;;;;5.37;4.97;;;18.40;99.90;;;;;;6323622;28;20465;-63
2022/06/03 01:43:05;;;;;;;5.50;5.10;;;18.30;99.90;;;;;;6251303;28;20485;-62
2022/06/03 01:46:19;;;;;;;5.23;4.93;;;18.30;99.90;;;;;;6322101;28;20460;-62
2022/06/03 01:49:40;;;;;;;6.80;5.90;;;18.30;99.90;;;;;;6324520;28;20236;-62
2022/06/03 01:53:31;;;;;;;5.80;5.30;;;18.20;99.90;;;;;;6324073;28;20812;-62
2022/06/03 01:57:02;;;;;;;6.27;5.77;;;18.30;99.90;;;;;;6272241;28;20475;-62
2022/06/03 02:00:26;;;;;;;6.30;5.13;;;18.20;99.90;;;;;;6281756;28;20472;-62
2022/06/03 02:03:52;;;;;;;6.23;5.50;;;18.20;99.90;;;;;;6328670;28;20468;-62
2022/06/03 02:07:20;;;;;;;5.60;5.20;;;18.10;99.90;;;;;;6329560;28;20479;-61
2022/06/03 02:10:47;;;;;;;5.80;5.30;;;18.10;99.90;;;;;;6329791;28;20460;-61
2022/06/03 02:14:27;;;;;;;6.43;5.20;;;18.10;99.90;;;;;;6304152;28;20462;-61
2022/06/03 02:17:44;;;;;;;5.80;5.30;;;18.10;99.90;;;;;;6304339;28;20473;-62
2022/06/03 02:21:23;;;;;;;5.03;4.67;;;18.00;99.90;;;;;;6304223;28;20929;-62
2022/06/03 02:24:56;;;;;;;5.83;5.43;;;18.00;99.90;;;;;;6304351;28;20472;-61
2022/06/03 02:28:20;;;;;;;5.30;4.63;;;18.10;99.90;;;;;;6303629;28;20555;-62
2022/06/03 02:31:37;;;;;;;4.63;4.33;;;18.00;99.90;;;;;;6303339;28;20238;-62
2022/06/03 02:35:01;;;;;;;5.33;4.87;;;17.90;99.90;;;;;;6303637;28;20453;-62
2022/06/03 02:38:23;;;;;;;4.90;4.50;;;17.90;99.90;;;;;;6303852;28;20783;-62
2022/06/03 02:41:54;;;;;;;4.93;4.53;;;17.80;99.90;;;;;;6303749;28;20469;-62
2022/06/03 02:45:30;;;;;;;5.33;4.93;;;17.80;99.90;;;;;;6303701;28;20469;-62
2022/06/03 02:48:54;;;;;;;6.17;5.53;;;17.70;99.90;;;;;;6303246;28;20781;-62
2022/06/03 02:52:28;;;;;;;5.07;4.67;;;17.70;99.90;;;;;;6302679;28;20496;-62
2022/06/03 02:56:05;;;;;;;5.37;4.97;;;17.70;99.90;;;;;;6303259;28;20461;-62
2022/06/03 02:59:36;;;;;;;5.03;4.73;;;17.70;99.90;;;;;;6303241;28;20474;-62
2022/06/03 03:03:23;;;;;;;4.90;4.60;;;17.70;99.90;;;;;;6302810;28;20472;-62
2022/06/03 03:07:02;;;;;;;6.73;5.27;;;17.60;99.90;;;;;;6302724;28;20469;-62
2022/06/03 03:10:33;;;;;;;5.37;4.97;;;17.60;99.90;;;;;;6302613;28;20992;-62
2022/06/03 03:14:14;;;;;;;5.87;4.37;;;17.60;99.90;;;;;;6327241;28;20460;-62
2022/06/03 03:17:47;;;;;;;4.97;4.57;;;17.60;99.90;;;;;;6254324;28;20937;-62
2022/06/03 03:21:32;;;;;;;5.43;4.93;;;17.60;99.90;;;;;;6327817;28;20479;-62
2022/06/03 03:25:12;;;;;;;5.43;4.93;;;17.60;99.90;;;;;;6328058;28;20468;-62
2022/06/03 03:28:44;;;;;;;5.10;4.70;;;17.60;99.90;;;;;;6327965;28;20996;-62
2022/06/03 03:32:09;;;;;;;5.20;4.80;;;17.50;99.90;;;;;;6317430;28;20476;-62
2022/06/03 03:35:50;;;;;;;5.63;4.80;;;17.50;99.90;;;;;;6328071;28;20472;-62
2022/06/03 03:39:58;;;;;;;7.63;5.70;;;17.60;99.90;;;;;;6292307;28;20468;-63
2022/06/03 03:43:33;;;;;;;6.07;5.67;;;17.50;99.90;;;;;;6265370;28;20487;-62
2022/06/03 03:47:11;;;;;;;6.40;5.40;;;17.50;99.90;;;;;;6327677;28;20882;-62
2022/06/03 03:50:31;;;;;;;5.97;5.30;;;17.60;99.90;;;;;;6327900;28;20605;-62
2022/06/03 03:54:09;;;;;;;6.77;6.17;;;17.60;99.90;;;;;;6327510;28;20460;-62
2022/06/03 03:57:37;;;;;;;7.17;6.27;;;17.60;99.90;;;;;;6326737;28;20476;-62
2022/06/03 04:01:21;;;;;;;6.43;5.80;;;17.60;99.90;;;;;;6326620;28;20808;-62
2022/06/03 04:04:54;;;;;;;6.03;5.53;;;17.60;99.90;;;;;;6327181;28;20788;-62
2022/06/03 04:08:46;;;;;;;9.83;6.37;;;17.70;99.90;;;;;;6322394;28;20468;-63
2022/06/03 04:12:27;;;;;;;6.57;6.07;;;17.70;99.90;;;;;;6263537;28;20472;-62
2022/06/03 04:16:14;;;;;;;7.60;7.07;;;17.90;99.90;;;;;;6276315;28;20479;-62
2022/06/03 04:19:40;;;;;;;6.67;5.60;;;18.00;99.90;;;;;;6301357;28;20556;-62
2022/06/03 04:23:32;;;;;;;6.73;6.17;;;18.20;99.90;;;;;;6326553;28;20934;-62
2022/06/03 04:27:02;;;;;;;6.10;5.60;;;18.20;99.90;;;;;;6325763;28;20456;-62
2022/06/03 04:30:39;;;;;;;6.20;5.70;;;18.40;99.90;;;;;;6326360;28;20468;-63
2022/06/03 04:33:56;;;;;;;6.07;5.00;;;18.50;99.90;;;;;;6326155;28;20572;-63
2022/06/03 04:37:42;;;;;;;9.13;5.43;;;18.60;99.90;;;;;;6325968;28;20289;-63
2022/06/03 04:41:26;;;;;;;5.60;5.20;;;18.70;99.90;;;;;;6325649;28;20222;-63
2022/06/03 04:45:08;;;;;;;5.87;5.13;;;18.80;99.90;;;;;;6325601;28;20227;-62
2022/06/03 04:49:11;;;;;;;5.40;5.00;;;18.90;99.90;;;;;;6325664;28;20226;-62
2022/06/03 04:53:06;;;;;;;7.80;5.50;;;19.10;99.90;;;;;;6183582;28;20476;-63
2022/06/03 04:56:49;;;;;;;6.00;5.43;;;19.20;99.90;;;;;;6325641;28;20230;-63
2022/06/03 05:00:22;;;;;;;6.67;6.17;;;19.40;99.90;;;;;;6325758;28;20561;-63
2022/06/03 05:03:59;;;;;;;6.50;5.93;;;19.50;99.90;;;;;;6323313;28;20235;-62
2022/06/03 05:07:54;;;;;;;7.00;6.40;;;19.60;99.90;;;;;;6325299;28;20223;-62
2022/06/03 05:11:45;;;;;;;7.27;6.70;;;19.90;99.90;;;;;;6324938;28;20223;-62
2022/06/03 05:15:29;;;;;;;6.73;6.23;;;20.00;99.90;;;;;;6316141;28;20246;-63
2022/06/03 05:19:05;;;;;;;6.40;5.90;;;20.20;99.90;;;;;;6325049;28;20240;-63
2022/06/03 05:22:39;;;;;;;7.17;6.40;;;20.30;99.90;;;;;;6324639;28;20241;-63
2022/06/03 05:26:29;;;;;;;6.63;6.13;;;20.40;99.90;;;;;;6324783;28;20218;-63
2022/06/03 05:30:12;;;;;;;7.90;6.27;;;20.60;99.90;;;;;;6307677;28;20223;-64
2022/06/03 05:33:37;;;;;;;8.30;7.00;;;20.80;99.90;;;;;;6324660;28;20237;-63
2022/06/03 05:37:13;;;;;;;7.63;7.03;;;21.00;99.90;;;;;;6324578;28;20237;-63
2022/06/03 05:40:38;;;;;;;8.30;6.90;;;21.10;99.90;;;;;;6324602;28;20237;-63
2022/06/03 05:43:54;;;;;;;7.47;6.77;;;21.20;99.90;;;;;;6322396;28;20214;-63
2022/06/03 05:47:03;;;;;;;10.03;5.57;;;21.40;99.90;;;;;;6299610;28;20231;-63
2022/06/03 05:50:12;;;;;;;7.57;6.93;;;21.60;99.90;;;;;;6299531;28;20234;-63
2022/06/03 05:53:28;;;;;;;12.20;8.20;;;21.70;99.90;;;;;;6299008;28;20329;-63
2022/06/03 05:56:49;;;;;;;7.43;6.77;;;21.80;99.90;;;;;;6299527;28;20261;-63
2022/06/03 06:00:08;;;;;;;8.40;7.60;;;22.00;99.90;;;;;;6299211;28;20252;-63
2022/06/03 06:03:26;;;;;;;6.73;6.23;;;22.20;99.90;;;;;;6299529;28;20235;-63
2022/06/03 06:06:36;;;;;;;7.40;6.80;;;22.60;99.90;;;;;;6299011;28;20235;-63
2022/06/03 06:09:57;;;;;;;7.70;7.10;;;23.20;99.90;;;;;;6299138;28;20237;-64
2022/06/03 06:13:13;;;;;;;7.17;6.60;;;24.00;99.90;;;;;;6299195;28;20235;-63
2022/06/03 06:16:21;;;;;;;6.67;6.10;;;24.60;99.90;;;;;;6299062;28;20231;-64
2022/06/03 06:19:39;;;;;;;5.83;5.43;;;24.90;99.90;;;;;;6313449;28;20260;-64
2022/06/03 06:22:48;;;;;;;6.77;5.47;;;25.60;98.60;;;;;;6322318;28;20691;-64
2022/06/03 06:26:19;;;;;;;6.07;5.57;;;25.90;97.60;;;;;;6298842;28;20226;-64
2022/06/03 06:29:59;;;;;;;6.03;5.63;;;26.50;96.30;;;;;;6299328;28;20233;-64
2022/06/03 06:33:40;;;;;;;6.63;6.00;;;27.00;94.90;;;;;;6299299;28;20241;-63
2022/06/03 06:37:17;;;;;;;6.47;5.90;;;27.70;92.80;;;;;;6299378;28;20223;-63
2022/06/03 06:40:37;;;;;;;8.97;6.50;;;28.30;91.30;;;;;;6296685;28;20656;-64
2022/06/03 06:43:49;;;;;;;6.63;5.97;;;28.90;89.70;;;;;;6323454;28;20267;-63
2022/06/03 06:47:00;;;;;;;10.40;5.93;;;29.00;87.80;;;;;;6324241;28;20235;-63
2022/06/03 06:50:15;;;;;;;6.90;6.40;;;29.30;84.70;;;;;;6328424;28;20226;-63
2022/06/03 06:53:32;;;;;;;5.00;4.70;;;29.70;81.90;;;;;;6328440;28;20226;-63
2022/06/03 06:56:45;;;;;;;5.80;5.40;;;30.10;80.60;;;;;;6328013;28;20236;-63
2022/06/03 06:59:54;;;;;;;7.43;6.73;;;31.00;77.30;;;;;;6328755;28;20230;-64
2022/06/03 07:03:01;;;;;;;6.63;5.78;;;31.30;75.80;;;;;;6327939;28;20233;-63
2022/06/03 07:06:13;;;;;;;6.53;6.03;;;31.70;72.80;;;;;;6328246;28;20233;-63
2022/06/03 07:09:38;;;;;;;6.78;6.28;;;31.70;72.00;;;;;;6328275;28;20233;-63
2022/06/03 07:12:52;;;;;;;7.80;6.93;;;32.30;71.80;;;;;;6328382;28;20229;-64
2022/06/03 07:16:11;;;;;;;6.97;6.15;;;32.70;69.40;;;;;;6327761;28;20233;-63
2022/06/03 07:22:49;;;;;;;6.10;5.68;;;34.50;63.50;;;;;;6328152;28;20233;-63
2022/06/03 07:25:58;;;;;;;5.80;5.30;;;34.80;62.20;;;;;;6327884;28;20233;-63
2022/06/03 07:29:06;;;;;;;6.13;5.55;;;35.40;59.50;;;;;;6327930;28;20236;-63
2022/06/03 07:32:16;;;;;;;6.35;5.95;;;36.10;54.60;;;;;;6327534;28;20229;-64
2022/06/03 07:35:22;;;;;;;4.65;4.25;;;34.90;54.90;;;;;;6328011;28;20222;-64
2022/06/03 07:38:29;;;;;;;5.65;5.10;;;34.90;53.70;;;;;;6327819;28;20540;-64
2022/06/03 07:41:45;;;;;;;4.85;4.55;;;35.30;52.20;;;;;;6327634;28;20225;-64
2022/06/03 07:45:01;;;;;;;4.70;4.30;;;36.50;50.60;;;;;;6327816;28;20226;-63
2022/06/03 07:48:07;;;;;;;6.00;4.95;;;37.00;48.20;;;;;;6327144;28;20632;-63
2022/06/03 07:51:20;;;;;;;4.65;4.18;;;36.10;49.00;;;;;;6327233;28;20236;-64
2022/06/03 07:54:27;;;;;;;4.88;4.47;;;35.80;48.40;;;;;;6327606;28;20222;-64
2022/06/03 07:57:30;;;;;;;7.57;5.30;;;34.90;49.60;;;;;;6326692;28;20233;-64
2022/06/03 08:00:35;;;;;;;4.78;4.38;;;33.90;50.90;;;;;;6325773;28;20317;-64
2022/06/03 08:03:41;;;;;;;4.63;4.22;;;33.10;52.80;;;;;;6326732;28;20226;-64
2022/06/03 08:13:44;;;;;;;5.97;5.38;;;31.50;56.40;;;;;;6326605;28;20229;-64
2022/06/03 08:16:47;;;;;;;5.05;4.65;;;30.90;56.90;;;;;;6326778;28;20291;-64
2022/06/03 08:19:54;;;;;;;5.55;5.15;;;30.40;58.90;;;;;;6326467;28;20293;-64
2022/06/03 08:22:57;;;;;;;8.40;5.67;;;29.70;60.60;;;;;;6326156;28;20537;-64
2022/06/03 08:26:04;;;;;;;5.23;4.70;;;29.30;60.80;;;;;;6321585;28;20564;-64
2022/06/03 08:29:13;;;;;;;5.20;4.80;;;29.50;61.80;;;;;;6326464;28;20236;-64
2022/06/03 08:32:20;;;;;;;5.07;4.77;;;29.30;63.20;;;;;;6325883;28;20687;-64
2022/06/03 08:35:27;;;;;;;5.40;4.90;;;29.20;63.70;;;;;;6326217;28;20221;-64
2022/06/03 08:38:38;;;;;;;5.33;4.93;;;29.20;64.60;;;;;;6326069;28;20547;-64
2022/06/03 08:41:53;;;;;;;5.50;5.10;;;29.00;65.30;;;;;;6326348;28;20225;-64
2022/06/03 08:45:17;;;;;;;5.70;5.30;;;28.70;65.90;;;;;;6326128;28;20229;-63
2022/06/03 08:48:26;;;;;;;6.07;5.60;;;28.20;67.30;;;;;;6325701;28;20578;-62
2022/06/03 08:51:37;;;;;;;6.40;5.70;;;28.00;68.30;;;;;;6325449;28;20236;-62
2022/06/03 08:54:44;;;;;;;4.97;4.67;;;27.90;69.00;;;;;;6320478;28;20232;-61
2022/06/03 08:57:48;;;;;;;6.47;5.67;;;28.00;68.10;;;;;;6324957;27;20226;-62
2022/06/03 09:01:20;;;;;;;5.50;5.00;;;27.70;69.50;;;;;;6325328;28;20240;-65
2022/06/03 09:04:33;;;;;;;4.80;4.50;;;27.80;71.00;;;;;;6320430;28;20220;-64
2022/06/03 09:07:44;;;;;;;4.83;4.43;;;28.10;69.80;;;;;;6325680;28;20205;-65
2022/06/03 09:10:56;;;;;;;4.77;4.37;;;28.00;68.20;;;;;;6325132;28;20292;-67
2022/06/03 09:14:04;;;;;;;5.97;5.57;;;27.60;71.70;;;;;;6325438;28;20225;-63
2022/06/03 09:17:25;;;;;;;5.20;4.80;;;27.70;71.90;;;;;;6325138;28;20680;-67
2022/06/03 09:20:33;;;;;;;5.53;5.13;;;27.80;72.10;;;;;;6325059;28;20687;-65
2022/06/03 09:23:42;;;;;;;6.33;5.83;;;27.90;71.80;;;;;;6325308;28;20234;-67
2022/06/03 09:26:50;;;;;;;5.83;5.30;;;28.20;71.90;;;;;;6325082;28;20226;-67
2022/06/03 09:29:59;;;;;;;4.67;4.27;;;28.20;70.80;;;;;;6292815;28;20661;-66
2022/06/03 09:33:05;;;;;;;5.50;5.10;;;28.20;70.40;;;;;;6274568;28;20246;-65
2022/06/03 09:36:13;;;;;;;5.00;4.60;;;28.50;69.60;;;;;;6275333;28;20709;-67
2022/06/03 09:39:19;;;;;;;4.63;4.30;;;28.40;69.60;;;;;;6274957;28;20240;-65
2022/06/03 09:42:23;;;;;;;4.60;4.30;;;28.50;69.60;;;;;;6274547;28;20243;-68
2022/06/03 09:45:27;;;;;;;5.10;4.23;;;28.40;68.80;;;;;;6274847;28;20238;-67
2022/06/03 09:48:36;;;;;;;4.57;4.20;;;28.70;68.90;;;;;;6274415;28;20223;-63
2022/06/03 09:52:00;;;;;;;4.87;4.43;;;28.80;68.50;;;;;;6274545;28;20249;-63
2022/06/03 09:55:16;;;;;;;4.77;4.37;;;28.80;68.50;;;;;;6275233;28;20230;-63
2022/06/03 09:58:23;;;;;;;4.87;4.57;;;28.90;67.30;;;;;;6299123;28;20242;-66
2022/06/03 10:01:27;;;;;;;4.70;4.40;;;29.10;66.70;;;;;;6299113;28;20309;-66
2022/06/03 10:04:30;;;;;;;5.10;4.60;;;28.90;66.40;;;;;;6298791;28;20317;-64
2022/06/03 10:07:34;;;;;;;5.20;4.80;;;28.90;67.30;;;;;;6299373;28;20226;-65
2022/06/03 10:14:00;;;;;;;5.00;4.60;;;29.00;66.90;;;;;;6324256;28;20229;-65
2022/06/03 10:17:06;;;;;;;4.80;4.50;;;29.20;66.30;;;;;;6324420;28;20221;-65
2022/06/03 10:20:10;;;;;;;5.03;4.67;;;29.50;65.60;;;;;;6324090;28;20240;-65
2022/06/03 10:23:14;;;;;;;5.00;4.60;;;29.40;66.10;;;;;;6325591;28;20284;-65
2022/06/03 10:26:41;;;;;;;4.77;4.33;;;29.50;64.80;;;;;;6329000;28;20221;-66
2022/06/03 10:29:49;;;;;;;7.10;5.37;;;29.60;64.80;;;;;;6329158;28;20233;-65
2022/06/03 10:32:52;;;;;;;5.10;4.73;;;29.80;64.80;;;;;;6324619;28;20673;-66
2022/06/03 10:35:58;;;;;;;5.33;4.93;;;30.10;64.80;;;;;;6317084;27;20240;-66
2022/06/03 10:39:01;;;;;;;5.13;4.63;;;30.20;64.00;;;;;;6303899;28;20253;-67
2022/06/03 10:42:07;;;;;;;5.67;5.17;;;30.30;63.90;;;;;;6303207;28;20245;-66
2022/06/03 10:45:10;;;;;;;6.30;5.68;;;30.40;64.20;;;;;;6305272;28;20242;-66
2022/06/03 10:48:23;;;;;;;5.70;5.38;;;30.70;63.00;;;;;;6305437;28;20230;-64
2022/06/03 11:01:41;;;;;;;5.55;5.15;;;30.40;64.10;;;;;;6302419;28;20271;-64
2022/06/03 11:04:45;;;;;;;6.53;6.03;;;30.40;64.60;;;;;;6303030;28;20670;-64
2022/06/03 11:07:58;;;;;;;6.47;5.97;;;29.40;65.20;;;;;;6300658;28;20609;-62
2022/06/03 11:11:07;;;;;;;7.20;6.70;;;29.20;67.40;;;;;;6302871;28;20227;-62
2022/06/03 11:14:42;;;;;;;6.50;6.10;;;29.00;68.70;;;;;;6302495;28;20225;-62
2022/06/03 11:17:45;;;;;;;7.23;6.73;;;29.20;69.10;;;;;;6302677;28;20231;-63
2022/06/03 11:20:50;;;;;;;5.70;5.30;;;29.50;68.20;;;;;;6302617;28;20234;-63
2022/06/03 11:23:57;;;;;;;6.40;6.00;;;29.80;67.40;;;;;;6302680;28;20241;-63
2022/06/03 11:27:00;;;;;;;7.03;6.63;;;29.80;66.70;;;;;;6302353;28;20305;-63
2022/06/03 11:30:11;;;;;;;6.37;5.97;;;29.60;66.80;;;;;;6302367;28;20222;-63
2022/06/03 11:33:20;;;;;;;6.97;6.47;;;29.60;66.50;;;;;;6302265;28;20237;-63
2022/06/03 11:36:30;;;;;;;6.30;5.90;;;29.70;67.80;;;;;;6304133;28;20230;-67
2022/06/03 11:39:39;;;;;;;7.10;6.50;;;29.80;67.40;;;;;;6302645;28;20237;-66
2022/06/03 11:42:48;;;;;;;6.43;6.03;;;29.80;67.30;;;;;;6302018;28;20249;-66
2022/06/03 11:45:55;;;;;;;7.10;6.60;;;29.60;68.30;;;;;;6301844;28;20248;-65
2022/06/03 11:48:59;;;;;;;6.30;5.90;;;29.60;68.00;;;;;;6301803;28;20680;-66
2022/06/03 11:52:02;;;;;;;7.53;6.97;;;29.80;67.80;;;;;;6301679;28;20242;-66
2022/06/03 11:55:05;;;;;;;6.63;6.10;;;29.60;67.40;;;;;;6301865;28;20226;-67
2022/06/03 11:58:13;;;;;;;7.30;6.80;;;29.30;68.90;;;;;;6301099;28;20230;-64
2022/06/03 12:01:21;;;;;;;7.30;6.70;;;29.30;69.00;;;;;;6298194;28;20237;-64
2022/06/03 12:04:39;;;;;;;7.60;6.90;;;29.20;69.40;;;;;;6298740;28;20237;-64
2022/06/03 12:07:47;;;;;;;6.70;6.20;;;28.90;70.60;;;;;;6298514;28;20222;-64
2022/06/03 12:10:55;;;;;;;6.53;6.03;;;29.00;71.10;;;;;;6298285;28;20248;-65
2022/06/03 12:14:12;;;;;;;7.33;6.73;;;29.20;70.60;;;;;;6298703;28;20245;-65
2022/06/03 12:17:33;;;;;;;6.47;6.07;;;29.30;70.00;;;;;;6300360;28;20226;-65
2022/06/03 12:20:50;;;;;;;7.10;6.60;;;29.30;70.50;;;;;;6300268;28;20241;-65
2022/06/03 12:23:55;;;;;;;7.57;6.97;;;29.20;70.20;;;;;;6301628;28;20241;-65
2022/06/03 12:27:04;;;;;;;7.70;7.10;;;29.00;70.80;;;;;;6300526;28;20238;-65
2022/06/03 12:30:45;;;;;;;7.90;7.30;;;28.80;71.70;;;;;;6301357;28;20218;-65
2022/06/03 12:33:58;;;;;;;7.00;6.40;;;28.50;74.00;;;;;;6301007;28;20692;-65
2022/06/03 12:37:03;;;;;;;7.30;6.80;;;28.70;72.80;;;;;;6300826;28;20695;-65
2022/06/03 12:40:25;;;;;;;6.93;6.53;;;28.70;72.30;;;;;;6301183;28;20233;-65
2022/06/03 12:43:32;;;;;;;7.40;6.70;;;28.40;73.40;;;;;;6291101;28;20234;-65
2022/06/03 12:46:41;;;;;;;8.57;7.03;;;28.60;72.80;;;;;;6320573;28;20236;-65
2022/06/03 12:49:50;;;;;;;7.03;6.53;;;28.70;71.90;;;;;;6325382;28;20201;-65
2022/06/03 12:52:57;;;;;;;7.37;6.70;;;29.10;71.50;;;;;;6325437;28;20260;-64
2022/06/03 12:56:03;;;;;;;7.60;7.00;;;29.10;70.60;;;;;;6325792;28;20687;-64
2022/06/03 12:59:17;;;;;;;6.03;5.63;;;29.30;70.30;;;;;;6325824;28;20225;-64
2022/06/03 13:02:22;;;;;;;7.00;6.40;;;29.30;70.30;;;;;;6325924;28;20237;-64
2022/06/03 13:05:42;;;;;;;7.20;6.60;;;29.40;68.90;;;;;;6325566;28;20225;-65
2022/06/03 13:12:17;;;;;;;6.20;5.80;;;29.30;69.50;;;;;;6325290;28;20230;-64
2022/06/03 13:15:46;;;;;;;6.10;5.70;;;29.10;70.10;;;;;;6325107;28;20226;-64
2022/06/03 13:18:51;;;;;;;5.73;5.33;;;29.40;69.90;;;;;;6325330;28;20573;-63
2022/06/03 13:22:07;;;;;;;6.53;6.03;;;29.40;71.00;;;;;;6324904;28;20236;-66
2022/06/03 13:25:26;;;;;;;7.13;6.63;;;29.60;70.10;;;;;;6325233;28;20547;-64
2022/06/03 13:28:38;;;;;;;6.00;5.60;;;29.70;68.50;;;;;;6325267;28;20226;-63
2022/06/03 13:32:04;;;;;;;7.17;6.63;;;29.60;69.70;;;;;;6325022;28;20237;-64
2022/06/03 13:35:09;;;;;;;5.80;5.40;;;29.60;68.60;;;;;;6325078;28;20226;-64
2022/06/03 13:38:25;;;;;;;6.10;5.57;;;29.60;68.70;;;;;;6325115;28;20224;-64
2022/06/03 13:45:20;;;;;;;6.83;5.90;;;29.30;69.70;;;;;;6315038;28;20234;-63
2022/06/03 13:48:29;;;;;;;6.27;5.77;;;29.00;71.30;;;;;;6324670;28;20683;-63
2022/06/03 13:51:54;;;;;;;5.70;5.30;;;29.00;72.00;;;;;;6324366;28;20232;-63
2022/06/03 13:55:10;;;;;;;6.73;6.13;;;29.00;72.00;;;;;;6324503;28;20226;-63
2022/06/03 13:58:18;;;;;;;6.40;5.90;;;29.20;72.20;;;;;;6323291;28;20230;-63
2022/06/03 14:01:29;;;;;;;6.10;5.60;;;29.10;69.60;;;;;;6324196;28;20226;-63
2022/06/03 14:04:33;;;;;;;4.90;4.60;;;29.20;69.90;;;;;;6324498;28;20264;-65
2022/06/03 14:07:39;;;;;;;6.33;5.83;;;29.30;70.10;;;;;;6324288;28;20222;-63
2022/06/03 14:10:49;;;;;;;5.80;5.40;;;29.20;71.20;;;;;;6324488;28;20193;-62
2022/06/03 14:13:57;;;;;;;5.67;5.17;;;29.20;71.30;;;;;;6321892;28;20229;-62
2022/06/03 14:17:08;;;;;;;5.90;5.50;;;28.80;71.30;;;;;;6324039;28;20291;-62
2022/06/03 14:20:14;;;;;;;5.10;4.80;;;28.90;72.10;;;;;;6324369;28;20226;-63
2022/06/03 14:23:27;;;;;;;5.40;5.10;;;28.80;72.90;;;;;;6324062;28;20248;-65
2022/06/03 14:26:38;;;;;;;6.10;5.60;;;28.70;74.20;;;;;;6323533;28;20233;-64
2022/06/03 14:29:48;;;;;;;6.30;5.90;;;28.60;74.00;;;;;;6324245;28;20226;-64
2022/06/03 14:32:57;;;;;;;6.07;5.67;;;28.80;74.50;;;;;;6324436;27;20238;-64
2022/06/03 14:36:01;;;;;;;5.87;5.43;;;29.10;74.50;;;;;;6324646;28;20291;-62
2022/06/03 14:39:10;;;;;;;5.87;5.23;;;29.00;73.50;;;;;;6324194;27;20225;-62
2022/06/03 14:42:22;;;;;;;5.00;4.47;;;28.70;75.10;;;;;;6323694;28;20240;-62
2022/06/03 14:45:28;;;;;;;5.30;4.90;;;28.90;75.30;;;;;;6323902;28;20221;-63
2022/06/03 14:48:38;;;;;;;6.00;5.50;;;28.90;75.20;;;;;;6319245;28;20222;-63
2022/06/03 14:51:46;;;;;;;6.53;6.03;;;29.00;75.30;;;;;;6323689;28;20236;-63
2022/06/03 14:54:53;;;;;;;6.00;5.50;;;28.90;74.50;;;;;;6324154;28;20232;-63
2022/06/03 14:58:03;;;;;;;6.60;6.20;;;28.70;75.20;;;;;;6323439;28;20253;-63
2022/06/03 15:01:26;;;;;;;5.10;4.80;;;28.80;74.60;;;;;;6323561;28;20313;-63
2022/06/03 15:04:40;;;;;;;6.87;6.27;;;28.80;74.70;;;;;;6323583;28;20230;-63
2022/06/03 15:07:49;;;;;;;5.83;5.33;;;28.70;75.30;;;;;;6323598;28;20214;-63
2022/06/03 15:11:07;;;;;;;6.90;6.07;;;28.60;74.60;;;;;;6327143;28;20197;-62
2022/06/03 15:14:14;;;;;;;6.77;6.17;;;28.40;76.60;;;;;;6327859;28;20229;-62
2022/06/03 15:17:23;;;;;;;7.20;6.57;;;28.30;77.00;;;;;;6327515;28;20229;-62
2022/06/03 15:20:26;;;;;;;6.60;6.10;;;28.30;77.50;;;;;;6327724;28;20664;-62
2022/06/03 15:23:29;;;;;;;6.97;6.30;;;28.40;78.30;;;;;;6328086;28;20232;-64
2022/06/03 15:26:44;;;;;;;7.83;7.23;;;28.20;78.40;;;;;;6327849;28;20686;-63
2022/06/03 15:29:51;;;;;;;6.70;6.10;;;27.90;78.60;;;;;;6327979;28;20234;-63
2022/06/03 15:32:56;;;;;;;7.60;7.00;;;27.70;79.80;;;;;;6327951;28;20290;-61
2022/06/03 15:36:03;;;;;;;7.30;6.87;;;27.80;79.90;;;;;;6327395;28;20581;-63
2022/06/03 15:39:17;;;;;;;8.37;7.67;;;28.00;81.00;;;;;;6327534;28;20229;-61
2022/06/03 15:42:26;;;;;;;8.67;7.97;;;28.00;81.70;;;;;;6327306;28;20236;-63
2022/06/03 15:45:43;;;;;;;7.43;6.93;;;27.90;82.20;;;;;;6326229;28;20241;-64
2022/06/03 15:48:54;;;;;;;8.63;8.00;;;27.80;82.30;;;;;;6327210;28;20245;-63
2022/06/03 15:51:57;;;;;;;8.60;7.90;;;27.80;82.20;;;;;;6313029;28;20246;-63
2022/06/03 15:55:00;;;;;;;7.60;7.10;;;27.70;82.40;;;;;;6327198;27;20559;-63
2022/06/03 15:58:13;;;;;;;8.27;7.57;;;27.70;82.60;;;;;;6326815;28;20317;-62
2022/06/03 16:01:26;;;;;;;7.53;6.93;;;27.70;82.90;;;;;;6326740;28;20226;-63
2022/06/03 16:04:42;;;;;;;7.77;7.10;;;27.60;83.50;;;;;;6325626;28;20697;-65
2022/06/03 16:08:13;;;;;;;8.00;7.30;;;27.60;83.30;;;;;;6325596;28;20221;-62
2022/06/03 16:11:26;;;;;;;9.13;8.43;;;27.50;83.90;;;;;;6325002;28;20359;-63
2022/06/03 16:14:41;;;;;;;7.40;6.90;;;27.30;84.40;;;;;;6325410;28;20306;-63
2022/06/03 16:18:04;;;;;;;8.20;7.50;;;27.40;84.50;;;;;;6325488;28;20240;-64
2022/06/03 16:21:20;;;;;;;7.80;7.10;;;27.40;84.60;;;;;;6325399;28;20226;-66
2022/06/03 16:24:31;;;;;;;7.97;7.20;;;27.30;85.30;;;;;;6326633;28;20233;-64
2022/06/03 16:27:41;;;;;;;8.03;7.43;;;27.20;85.80;;;;;;6326280;28;20671;-63
2022/06/03 16:30:52;;;;;;;9.00;8.23;;;27.10;86.20;;;;;;6325344;28;20684;-63
2022/06/03 16:34:06;;;;;;;7.77;7.20;;;27.00;86.90;;;;;;6324516;28;20230;-64
2022/06/03 16:37:16;;;;;;;7.63;7.03;;;27.00;87.30;;;;;;6325265;28;20248;-64
2022/06/03 16:40:25;;;;;;;7.70;7.10;;;27.00;87.30;;;;;;6325133;28;20232;-64
2022/06/03 16:43:34;;;;;;;8.90;8.20;;;26.80;88.20;;;;;;6324877;28;20229;-64
2022/06/03 16:46:48;;;;;;;8.63;7.83;;;26.60;89.00;;;;;;6325966;28;20225;-64
2022/06/03 16:50:04;;;;;;;9.17;8.27;;;26.60;88.60;;;;;;6325963;28;20209;-65
2022/06/03 16:53:14;;;;;;;8.77;7.90;;;26.50;88.50;;;;;;6316056;28;20824;-65
2022/06/03 16:56:25;;;;;;;6.93;6.43;;;26.30;89.50;;;;;;6325357;28;20230;-65
2022/06/03 16:59:28;;;;;;;8.00;7.40;;;26.20;89.90;;;;;;6325600;28;20686;-65
2022/06/03 17:02:32;;;;;;;7.10;6.60;;;26.20;90.20;;;;;;6325545;28;20226;-65
2022/06/03 17:05:46;;;;;;;9.03;8.30;;;26.10;90.60;;;;;;6325511;28;20230;-65
2022/06/03 17:08:52;;;;;;;7.73;7.20;;;26.10;90.60;;;;;;6325441;28;20237;-64
2022/06/03 17:11:57;;;;;;;12.00;6.70;;;26.10;91.00;;;;;;6325217;28;20232;-64
2022/06/03 17:15:02;;;;;;;7.90;7.30;;;25.90;91.40;;;;;;6325022;28;20607;-64
2022/06/03 17:18:06;;;;;;;9.87;7.50;;;25.80;91.80;;;;;;6325002;28;20695;-64
2022/06/03 17:21:26;;;;;;;8.17;7.57;;;25.70;92.20;;;;;;6324856;28;20221;-64
2022/06/03 17:24:56;;;;;;;7.57;6.87;;;25.70;92.40;;;;;;6325169;28;20226;-64
2022/06/03 17:28:37;;;;;;;7.87;7.17;;;25.60;92.60;;;;;;6324828;28;20237;-64
2022/06/03 17:31:44;;;;;;;7.60;7.00;;;25.70;92.70;;;;;;6324684;28;20222;-64
2022/06/03 17:35:14;;;;;;;9.17;8.23;;;25.70;92.90;;;;;;6325276;28;20490;-64
2022/06/03 17:38:30;;;;;;;8.27;7.47;;;25.70;92.90;;;;;;6318905;28;20675;-64